createdAt,value
2018-06-09T00:04:58.480Z,101080.50
2018-06-09T00:10:00.687Z,101074.50
2018-06-09T00:15:02.940Z,101077.50
2018-06-09T00:20:05.169Z,101072.39
2018-06-09T00:25:07.390Z,101072.39
2018-06-09T00:30:09.569Z,101065.52
2018-06-09T00:35:11.759Z,101069.38
2018-06-09T00:40:14.034Z,101064.68
2018-06-09T00:45:16.226Z,101062.14
2018-06-09T00:50:18.437Z,101066.83
2018-06-09T00:55:20.578Z,101059.56
2018-06-09T01:00:22.782Z,101062.99
2018-06-09T01:05:24.996Z,101063.00
2018-06-09T01:10:27.194Z,101068.09
2018-06-09T01:15:29.365Z,101073.22
2018-06-09T01:20:31.568Z,101073.67
2018-06-09T01:25:33.770Z,101073.24
2018-06-09T01:30:35.932Z,101057.41
2018-06-09T01:35:38.088Z,101059.55
2018-06-09T01:40:40.301Z,101059.12
2018-06-09T01:45:42.466Z,101056.95
2018-06-09T01:50:44.652Z,101059.94
2018-06-09T01:55:46.604Z,101062.93
2018-06-09T02:00:48.807Z,101068.88
2018-06-09T02:05:50.972Z,101068.03
2018-06-09T02:10:53.163Z,101070.11
2018-06-09T02:15:55.326Z,101069.66
2018-06-09T02:20:57.537Z,101069.23
2018-06-09T02:25:59.714Z,101078.20
2018-06-09T02:31:01.905Z,101082.03
2018-06-09T02:36:04.732Z,101087.57
2018-06-09T02:41:06.940Z,101087.11
2018-06-09T02:46:09.164Z,101083.23
2018-06-09T02:51:11.351Z,101078.58
2018-06-09T02:56:13.545Z,101074.28
2018-06-09T03:01:15.722Z,101078.59
2018-06-09T03:06:17.908Z,101082.02
2018-06-09T03:11:20.056Z,101079.03
2018-06-09T03:16:22.236Z,101085.42
2018-06-09T03:21:24.406Z,101091.83
2018-06-09T03:26:26.562Z,101083.73
2018-06-09T03:31:28.695Z,101086.29
2018-06-09T03:36:30.843Z,101095.70
2018-06-09T03:41:33.065Z,101095.70
2018-06-09T03:46:35.200Z,101096.56
2018-06-09T03:51:37.386Z,101094.87
2018-06-09T03:56:39.614Z,101094.90
2018-06-09T04:01:41.817Z,101087.23
2018-06-09T04:06:44.019Z,101087.23
2018-06-09T04:11:46.209Z,101087.69
2018-06-09T04:16:49.515Z,101092.42
2018-06-09T04:21:51.682Z,101096.76
2018-06-09T04:26:53.869Z,101105.30
2018-06-09T04:31:56.063Z,101104.02
2018-06-09T04:36:58.214Z,101100.62
2018-06-09T04:42:00.401Z,101107.89
2018-06-09T04:47:02.601Z,101113.08
2018-06-09T04:52:04.823Z,101116.48
2018-06-09T04:57:06.989Z,101115.63
2018-06-09T05:02:09.167Z,101125.05
2018-06-09T05:07:11.353Z,101122.88
2018-06-09T05:12:13.545Z,101124.14
2018-06-09T05:17:15.713Z,101117.67
2018-06-09T05:22:17.876Z,101115.52
2018-06-09T05:27:20.051Z,101114.22
2018-06-09T05:32:22.231Z,101111.15
2018-06-09T05:37:24.409Z,101103.38
2018-06-09T05:42:26.620Z,101102.94
2018-06-09T05:47:28.790Z,101108.09
2018-06-09T05:52:30.970Z,101118.82
2018-06-09T05:57:33.132Z,101116.21
2018-06-09T06:02:35.346Z,101111.48
2018-06-09T06:07:37.602Z,101115.33
2018-06-09T06:12:39.823Z,101131.19
2018-06-09T06:17:42.065Z,101142.35
2018-06-09T06:22:44.260Z,101145.83
2018-06-09T06:27:46.462Z,101148.00
2018-06-09T06:32:48.641Z,101144.16
2018-06-09T06:37:50.861Z,101151.44
2018-06-09T06:42:53.070Z,101148.72
2018-06-09T06:47:55.258Z,101158.47
2018-06-09T06:52:57.424Z,101159.14
2018-06-09T06:57:59.609Z,101157.22
2018-06-09T07:03:01.773Z,101163.86
2018-06-09T07:08:04.030Z,101161.08
2018-06-09T07:13:06.197Z,101169.47
2018-06-09T07:18:08.392Z,101165.97
2018-06-09T07:23:10.572Z,101167.46
2018-06-09T07:28:12.740Z,101168.97
2018-06-09T07:33:14.967Z,101167.34
2018-06-09T07:38:17.153Z,101164.05
2018-06-09T07:43:19.373Z,101171.64
2018-06-09T07:48:21.595Z,101170.28
2018-06-09T07:53:23.790Z,101169.95
2018-06-09T07:58:26.020Z,101167.65
2018-06-09T08:03:28.237Z,101164.66
2018-06-09T08:08:30.434Z,101160.39
2018-06-09T08:13:32.618Z,101167.53
2018-06-09T08:18:34.819Z,101179.01
2018-06-09T08:23:36.979Z,101180.22
2018-06-09T08:28:39.159Z,101171.72
2018-06-09T08:33:41.347Z,101165.51
2018-06-09T08:38:43.542Z,101163.99
2018-06-09T08:43:45.844Z,101159.94
2018-06-09T08:48:48.094Z,101154.91
2018-06-09T08:53:50.328Z,101160.00
2018-06-09T08:58:52.567Z,101158.31
2018-06-09T09:03:54.753Z,101153.94
2018-06-09T09:08:56.924Z,101153.54
2018-06-09T09:13:59.162Z,101145.86
2018-06-09T09:19:01.336Z,101147.91
2018-06-09T09:24:03.556Z,101149.89
2018-06-09T09:29:05.743Z,101150.01
2018-06-09T09:34:07.911Z,101152.31
2018-06-09T09:39:10.086Z,101148.91
2018-06-09T09:44:12.276Z,101141.39
2018-06-09T09:49:14.459Z,101144.37
2018-06-09T09:54:16.625Z,101138.47
2018-06-09T09:59:19.015Z,101143.66
2018-06-09T10:04:21.206Z,101154.02
2018-06-09T10:09:23.457Z,101152.24
2018-06-09T10:14:25.639Z,101146.77
2018-06-09T10:19:27.841Z,101148.63
2018-06-09T10:24:30.039Z,101152.27
2018-06-09T10:29:32.248Z,101147.94
2018-06-09T10:34:34.453Z,101147.56
2018-06-09T10:39:36.710Z,101142.45
2018-06-09T10:44:38.952Z,101146.09
2018-06-09T10:49:41.161Z,101141.45
2018-06-09T10:54:43.351Z,101144.95
2018-06-09T10:59:45.532Z,101144.08
2018-06-09T11:04:47.733Z,101145.03
2018-06-09T11:09:49.960Z,101143.73
2018-06-09T11:14:52.218Z,101141.20
2018-06-09T11:19:54.437Z,101144.67
2018-06-09T11:24:56.642Z,101142.06
2018-06-09T11:29:58.900Z,101141.19
2018-06-09T11:35:01.044Z,101140.30
2018-06-09T11:40:03.298Z,101133.75
2018-06-09T11:45:05.565Z,101136.08
2018-06-09T11:50:07.771Z,101128.06
2018-06-09T11:55:10.026Z,101137.41
2018-06-09T12:00:12.247Z,101134.99
2018-06-09T12:05:14.418Z,101129.30
2018-06-09T12:10:16.635Z,101129.93
2018-06-09T12:15:18.908Z,101124.44
2018-06-09T12:20:21.106Z,101123.50
2018-06-09T12:25:23.360Z,101118.07
2018-06-09T12:30:25.575Z,101119.27
2018-06-09T12:35:27.774Z,101118.67
2018-06-09T12:40:29.982Z,101120.36
2018-06-09T12:45:32.213Z,101123.66
2018-06-09T12:50:34.462Z,101111.92
2018-06-09T12:55:36.690Z,101112.89
2018-06-09T13:00:38.880Z,101108.37
2018-06-09T13:05:41.096Z,101101.21
2018-06-09T13:10:43.333Z,101090.52
2018-06-09T13:15:45.554Z,101091.27
2018-06-09T13:20:47.789Z,101080.69
2018-06-09T13:25:49.998Z,101086.60
2018-06-09T13:30:52.200Z,101075.20
2018-06-09T13:35:54.476Z,101071.25
2018-06-09T13:40:56.570Z,101066.23
2018-06-09T13:45:58.934Z,101075.34
2018-06-09T13:51:01.145Z,101068.64
2018-06-09T13:56:03.404Z,101064.55
2018-06-09T14:01:05.690Z,101056.94
2018-06-09T14:06:07.916Z,101053.73
2018-06-09T14:11:10.102Z,101051.78
2018-06-09T14:16:12.368Z,101057.45
2018-06-09T14:21:14.615Z,101058.58
2018-06-09T14:26:16.821Z,101056.50
2018-06-09T14:31:19.058Z,101043.53
2018-06-09T14:36:21.303Z,101047.80
2018-06-09T14:41:23.477Z,101044.83
2018-06-09T14:46:25.757Z,101048.13
2018-06-09T14:51:27.923Z,101050.41
2018-06-09T14:56:30.114Z,101044.16
2018-06-09T15:01:32.296Z,101041.98
2018-06-09T15:06:34.571Z,101036.33
2018-06-09T15:11:36.784Z,101035.11
2018-06-09T15:16:39.051Z,101030.92
2018-06-09T15:21:41.204Z,101033.55
2018-06-09T15:26:43.368Z,101030.21
2018-06-09T15:31:45.596Z,101022.63
2018-06-09T15:36:47.817Z,101020.69
2018-06-09T15:41:50.013Z,101014.42
2018-06-09T15:46:52.258Z,101009.34
2018-06-09T15:51:54.472Z,101003.88
2018-06-09T15:56:56.692Z,100999.03
2018-06-09T16:01:58.887Z,101000.28
2018-06-09T16:07:01.167Z,100997.10
2018-06-09T16:12:03.428Z,100992.03
2018-06-09T16:17:05.595Z,100977.23
2018-06-09T16:22:07.819Z,100983.22
2018-06-09T16:27:10.037Z,100977.78
2018-06-09T16:32:12.292Z,100974.41
2018-06-09T16:37:14.562Z,100972.87
2018-06-09T16:42:16.756Z,100975.92
2018-06-09T16:47:19.082Z,100966.53
2018-06-09T16:52:21.311Z,100975.33
2018-06-09T16:57:23.527Z,100965.80
2018-06-09T17:02:25.711Z,100972.68
2018-06-09T17:07:27.967Z,100971.88
2018-06-09T17:12:30.174Z,100982.53
2018-06-09T17:17:32.464Z,100980.06
2018-06-09T17:22:34.762Z,100974.95
2018-06-09T17:27:36.924Z,100983.47
2018-06-09T17:32:39.136Z,100979.34
2018-06-09T17:37:41.332Z,100975.06
2018-06-09T17:42:43.571Z,100977.80
2018-06-09T17:47:45.807Z,100979.94
2018-06-09T17:52:48.014Z,100984.50
2018-06-09T17:57:50.209Z,100979.69
2018-06-09T18:02:52.431Z,100979.74
2018-06-09T18:07:54.653Z,100981.20
2018-06-09T18:12:56.830Z,100984.33
2018-06-09T18:17:59.034Z,100978.79
2018-06-09T18:23:01.336Z,100975.30
2018-06-09T18:28:03.663Z,100979.73
2018-06-09T18:33:05.833Z,100975.28
2018-06-09T18:38:07.988Z,100978.30
2018-06-09T18:43:10.192Z,100986.02
2018-06-09T18:48:12.423Z,100983.98
2018-06-09T18:53:14.630Z,100985.89
2018-06-09T18:58:16.887Z,100989.45
2018-06-09T19:03:19.100Z,100988.11
2018-06-09T19:08:21.344Z,100997.30
2018-06-09T19:13:23.569Z,100998.70
2018-06-09T19:18:25.812Z,100993.92
2018-06-09T19:23:28.006Z,100996.41
2018-06-09T19:28:30.285Z,100990.02
2018-06-09T19:33:32.617Z,100987.55
2018-06-09T19:38:34.847Z,100991.12
2018-06-09T19:43:37.109Z,100995.53
2018-06-09T19:48:39.413Z,100991.66
2018-06-09T19:53:42.131Z,100989.30
2018-06-09T19:58:44.622Z,100996.12
2018-06-09T20:03:46.928Z,100994.03
2018-06-09T20:08:49.204Z,100986.59
2018-06-09T20:13:51.410Z,100980.17
2018-06-09T20:18:53.604Z,100978.55
2018-06-09T20:23:55.821Z,100982.66
2018-06-09T20:28:58.077Z,100978.48
2018-06-09T20:34:00.401Z,100987.22
2018-06-09T20:39:03.927Z,100990.23
2018-06-09T20:44:06.116Z,100995.78
2018-06-09T20:49:08.823Z,101000.02
2018-06-09T20:54:11.074Z,100999.86
2018-06-09T20:59:13.297Z,100998.14
2018-06-09T21:04:15.565Z,101002.45
2018-06-09T21:09:17.774Z,100996.34
2018-06-09T21:14:20.041Z,100986.17
2018-06-09T21:19:22.207Z,100981.56
2018-06-09T21:24:26.363Z,100995.72
2018-06-09T21:29:33.712Z,100991.11
2018-06-09T21:34:54.202Z,100987.92
2018-06-09T21:40:04.597Z,100991.16
2018-06-09T21:45:08.846Z,100998.25
2018-06-09T21:50:13.289Z,100991.30
2018-06-09T21:55:16.336Z,100983.50
2018-06-09T22:00:19.379Z,100988.60
2018-06-09T22:05:22.437Z,100989.43
2018-06-09T22:10:27.261Z,100991.61
2018-06-09T22:15:30.045Z,100996.83
2018-06-09T22:20:32.948Z,100948.20
2018-06-09T22:25:42.765Z,100993.45
2018-06-09T22:30:46.344Z,100981.50
2018-06-09T22:35:49.311Z,100977.26
2018-06-09T22:40:52.047Z,100946.09
2018-06-09T22:45:55.445Z,100966.14
2018-06-09T22:50:58.551Z,100961.78
2018-06-09T22:56:02.192Z,100962.75
2018-06-09T23:01:04.958Z,100957.25
2018-06-09T23:06:07.883Z,100952.60
2018-06-09T23:11:11.363Z,100947.16
2018-06-09T23:16:14.489Z,100939.90
2018-06-09T23:21:17.388Z,100926.70
2018-06-09T23:26:20.744Z,100921.66
2018-06-09T23:31:24.205Z,100911.70
2018-06-09T23:36:26.453Z,100909.94
2018-06-09T23:41:28.623Z,100903.18
2018-06-09T23:46:30.812Z,100904.46
2018-06-09T23:51:33.011Z,100904.89
2018-06-09T23:56:35.151Z,100907.09
